Time;durP1;ratioP1;P1;durP2;ratioP2;P2;SDS_P1;SDS_P2;PMS_P1;PMS_P2;Temp;Humidity;BMP_temperature;BMP_pressure;BME280_temperature;BME280_humidity;BME280_pressure;Samples;Min_cycle;Max_cycle;Signal;HPM_P1;HPM_P2
2022/07/22 00:00:07;;;;;;;2.63;1.15;;;28.10;81.10;;;;;;5000754;28;20499;-65
2022/07/22 00:02:35;;;;;;;2.03;1.15;;;28.10;81.20;;;;;;4978095;28;20051;-61
2022/07/22 00:05:03;;;;;;;1.20;0.98;;;28.10;81.10;;;;;;4978677;28;20071;-64
2022/07/22 00:07:30;;;;;;;5.38;1.75;;;28.10;81.10;;;;;;5000610;28;20047;-62
2022/07/22 00:09:58;;;;;;;1.08;1.08;;;28.00;81.70;;;;;;4963522;28;20067;-63
2022/07/22 00:12:25;;;;;;;;;;;28.00;81.00;;;;;;5019224;28;20487;-63
2022/07/22 00:14:52;;;;;;;1.83;0.88;;;28.10;81.10;;;;;;4999268;28;20249;-63
2022/07/22 00:17:20;;;;;;;0.90;0.90;;;28.10;81.10;;;;;;5005513;28;20418;-61
2022/07/22 00:19:47;;;;;;;;;;;28.00;81.00;;;;;;4960228;28;20463;-62
2022/07/22 00:22:14;;;;;;;0.85;0.85;;;28.00;80.90;;;;;;4968257;28;19930;-62
2022/07/22 00:24:41;;;;;;;4.50;1.90;;;28.00;81.60;;;;;;5028032;28;20046;-62
2022/07/22 00:27:09;;;;;;;2.30;1.38;;;28.00;81.00;;;;;;4978033;28;20039;-62
2022/07/22 00:29:36;;;;;;;0.52;0.52;;;28.00;81.00;;;;;;4982315;28;20052;-62
2022/07/22 00:32:04;;;;;;;1.08;1.05;;;28.00;81.10;;;;;;4982035;28;20057;-62
2022/07/22 00:34:31;;;;;;;2.65;1.80;;;28.00;81.10;;;;;;4961558;28;20046;-62
2022/07/22 00:36:58;;;;;;;0.63;0.63;;;28.00;81.10;;;;;;5027191;28;20054;-62
2022/07/22 00:39:25;;;;;;;0.77;0.77;;;28.00;81.10;;;;;;5025703;28;20078;-61
2022/07/22 00:41:53;;;;;;;1.63;0.93;;;28.00;81.20;;;;;;5024582;28;20422;-63
2022/07/22 00:44:20;;;;;;;;;;;28.00;81.20;;;;;;5028752;28;20051;-63
2022/07/22 00:46:47;;;;;;;2.28;1.27;;;28.00;81.20;;;;;;5009474;28;19926;-63
2022/07/22 00:49:15;;;;;;;3.10;1.52;;;28.00;81.10;;;;;;5013909;28;20415;-63
2022/07/22 00:51:45;;;;;;;4.00;0.80;;;28.00;81.20;;;;;;5025676;28;20039;-62
2022/07/22 00:54:12;;;;;;;0.68;0.68;;;28.00;81.20;;;;;;5031482;28;20094;-66
2022/07/22 00:56:40;;;;;;;;;;;28.00;81.20;;;;;;4964619;28;20061;-63
2022/07/22 00:59:09;;;;;;;;;;;28.00;81.20;;;;;;4991130;28;19926;-63
2022/07/22 01:01:36;;;;;;;4.75;1.65;;;28.00;81.30;;;;;;4967449;28;20379;-62
2022/07/22 01:04:04;;;;;;;;;;;28.00;81.30;;;;;;5009534;28;20547;-61
2022/07/22 01:06:32;;;;;;;0.25;0.25;;;28.00;81.30;;;;;;4986218;28;19930;-62
2022/07/22 01:09:00;;;;;;;0.40;0.40;;;28.00;81.30;;;;;;5004924;28;20395;-63
2022/07/22 01:11:27;;;;;;;3.90;2.10;;;28.00;81.30;;;;;;4999185;28;20321;-63
2022/07/22 01:17:45;;;;;;;3.65;1.08;;;28.00;81.30;;;;;;4956784;28;20046;-60
2022/07/22 01:20:13;;;;;;;1.58;0.93;;;28.00;81.30;;;;;;4990928;28;20047;-62
2022/07/22 01:22:40;;;;;;;0.40;0.40;;;27.90;81.30;;;;;;4983983;28;20058;-63
2022/07/22 01:25:08;;;;;;;2.63;0.68;;;28.00;81.30;;;;;;5024790;28;20043;-63
2022/07/22 01:27:35;;;;;;;3.30;1.92;;;27.90;81.30;;;;;;5031683;28;20063;-63
2022/07/22 01:30:05;;;;;;;0.43;0.43;;;27.90;81.20;;;;;;5021033;28;20059;-62
2022/07/22 01:32:33;;;;;;;2.42;1.05;;;27.90;81.20;;;;;;5026047;28;20704;-62
2022/07/22 01:35:00;;;;;;;;;;;27.90;81.20;;;;;;4974726;28;21022;-63
2022/07/22 01:37:28;;;;;;;0.50;0.45;;;27.90;81.20;;;;;;5026986;28;19930;-64
2022/07/22 01:39:56;;;;;;;0.52;0.52;;;27.90;81.20;;;;;;5019128;28;20055;-61
2022/07/22 01:42:23;;;;;;;0.90;0.88;;;27.90;81.20;;;;;;4973531;28;20530;-63
2022/07/22 01:44:52;;;;;;;1.80;1.20;;;27.90;81.20;;;;;;5032783;28;20047;-63
2022/07/22 01:47:19;;;;;;;1.13;1.05;;;27.90;81.20;;;;;;5041662;28;20046;-62
2022/07/22 01:49:46;;;;;;;2.75;1.92;;;27.90;81.10;;;;;;5018412;28;20512;-63
2022/07/22 01:52:14;;;;;;;1.67;0.95;;;27.90;81.20;;;;;;5030940;28;20495;-62
2022/07/22 01:54:43;;;;;;;1.40;0.98;;;27.90;81.20;;;;;;5024036;28;20054;-62
2022/07/22 01:57:11;;;;;;;0.40;0.40;;;27.90;81.10;;;;;;5028069;28;20047;-63
2022/07/22 01:59:45;;;;;;;0.90;0.88;;;27.90;81.10;;;;;;5030950;28;20418;-63
2022/07/22 02:02:12;;;;;;;3.35;0.90;;;27.90;81.10;;;;;;5004833;28;20045;-63
2022/07/22 02:04:39;;;;;;;1.02;1.02;;;27.90;81.10;;;;;;4950951;28;20051;-63
2022/07/22 02:07:08;;;;;;;0.40;0.40;;;27.90;81.10;;;;;;5024442;28;20055;-62
2022/07/22 02:09:35;;;;;;;;;;;27.90;81.10;;;;;;5031032;28;20054;-63
2022/07/22 02:15:44;;;;;;;2.42;1.63;;;27.90;81.20;;;;;;4989284;28;19908;-61
2022/07/22 02:18:12;;;;;;;;;;;27.90;81.10;;;;;;4964048;28;20416;-63
2022/07/22 02:20:43;;;;;;;0.82;0.82;;;27.80;81.00;;;;;;5045162;28;19931;-63
2022/07/22 02:23:13;;;;;;;2.00;1.35;;;27.90;81.10;;;;;;4975885;28;20047;-62
2022/07/22 02:25:41;;;;;;;0.75;0.75;;;27.80;81.00;;;;;;5007652;28;20049;-63
2022/07/22 02:28:10;;;;;;;1.63;0.95;;;27.80;81.00;;;;;;5030098;28;20054;-63
2022/07/22 02:30:38;;;;;;;1.05;0.93;;;27.80;81.70;;;;;;5032675;28;20076;-61
2022/07/22 02:33:06;;;;;;;3.33;2.10;;;27.80;81.00;;;;;;5009347;28;20051;-61
2022/07/22 02:35:36;;;;;;;4.55;1.63;;;27.80;81.00;;;;;;4961526;28;20051;-63
2022/07/22 02:38:04;;;;;;;3.47;1.83;;;27.80;81.00;;;;;;5047969;28;20051;-63
2022/07/22 02:40:32;;;;;;;4.22;1.55;;;27.80;81.60;;;;;;5032264;28;20054;-62
2022/07/22 02:43:00;;;;;;;0.50;0.50;;;27.80;81.00;;;;;;5049782;28;20045;-63
2022/07/22 02:45:28;;;;;;;0.50;0.50;;;27.80;81.00;;;;;;5034757;28;20052;-62
2022/07/22 02:47:56;;;;;;;2.00;1.42;;;27.80;81.00;;;;;;5029838;28;20047;-62
2022/07/22 02:50:25;;;;;;;1.75;1.13;;;27.80;80.90;;;;;;5031345;28;20057;-63
2022/07/22 02:52:53;;;;;;;1.02;0.93;;;27.80;81.00;;;;;;5032650;28;20058;-62
2022/07/22 02:55:25;;;;;;;3.20;1.08;;;27.70;80.90;;;;;;5027014;28;20436;-63
2022/07/22 02:57:55;;;;;;;3.72;2.28;;;27.80;80.90;;;;;;5030029;28;20051;-62
2022/07/22 03:00:22;;;;;;;1.60;1.02;;;27.70;80.80;;;;;;5021696;28;20046;-62
2022/07/22 03:02:51;;;;;;;0.70;0.70;;;27.80;80.80;;;;;;5032331;28;20051;-63
2022/07/22 03:05:18;;;;;;;2.95;1.27;;;27.80;80.70;;;;;;5031134;28;20043;-63
2022/07/22 03:07:52;;;;;;;1.40;0.80;;;27.70;80.70;;;;;;5044097;28;20048;-62
2022/07/22 03:10:20;;;;;;;1.17;0.70;;;27.70;80.70;;;;;;5029336;28;20062;-62
2022/07/22 03:12:49;;;;;;;1.35;0.98;;;27.70;80.70;;;;;;5031807;28;20043;-64
2022/07/22 03:15:17;;;;;;;2.65;1.23;;;27.70;80.70;;;;;;5032676;28;20055;-63
2022/07/22 03:17:45;;;;;;;0.85;0.82;;;27.70;80.80;;;;;;5037823;28;20408;-62
2022/07/22 03:20:12;;;;;;;0.45;0.45;;;27.70;80.70;;;;;;5019279;28;20459;-61
2022/07/22 03:22:43;;;;;;;;;;;27.70;80.70;;;;;;5032977;28;20077;-61
2022/07/22 03:25:10;;;;;;;0.85;0.85;;;27.70;80.80;;;;;;5030411;28;19933;-62
2022/07/22 03:27:40;;;;;;;0.70;0.70;;;27.70;80.80;;;;;;4959175;28;20049;-63
2022/07/22 03:30:09;;;;;;;1.27;0.75;;;27.70;80.80;;;;;;5030368;28;20057;-61
2022/07/22 03:32:44;;;;;;;1.13;1.10;;;27.60;80.70;;;;;;5028583;28;20051;-63
2022/07/22 03:35:13;;;;;;;1.30;1.20;;;27.60;80.80;;;;;;5030423;28;20065;-62
2022/07/22 03:37:43;;;;;;;2.22;1.25;;;27.60;80.80;;;;;;5030852;28;20061;-63
2022/07/22 03:40:11;;;;;;;0.80;0.68;;;27.60;80.80;;;;;;5030245;28;20050;-63
2022/07/22 03:42:40;;;;;;;1.15;1.05;;;27.60;80.70;;;;;;5047289;28;20504;-64
2022/07/22 03:45:13;;;;;;;0.68;0.68;;;27.60;80.80;;;;;;5034020;28;20054;-63
2022/07/22 03:47:41;;;;;;;0.45;0.45;;;27.60;80.80;;;;;;5032276;28;20051;-63
2022/07/22 03:50:09;;;;;;;2.00;1.33;;;27.60;80.80;;;;;;4978154;28;20062;-63
2022/07/22 03:52:37;;;;;;;1.45;1.17;;;27.60;80.70;;;;;;5032763;28;20263;-63
2022/07/22 03:55:08;;;;;;;1.40;0.52;;;27.60;80.70;;;;;;5023069;28;20062;-63
2022/07/22 03:57:35;;;;;;;;;;;27.60;80.70;;;;;;4984842;28;20077;-63
2022/07/22 04:00:17;;;;;;;0.55;0.55;;;27.60;80.70;;;;;;5029862;28;20287;-61
2022/07/22 04:02:47;;;;;;;0.75;0.75;;;27.60;80.70;;;;;;5028329;28;20051;-63
2022/07/22 04:05:34;;;;;;;0.88;0.88;;;27.60;80.70;;;;;;4963660;28;20450;-62
2022/07/22 04:08:02;;;;;;;0.82;0.75;;;27.60;80.60;;;;;;5043473;28;20045;-62
2022/07/22 04:10:30;;;;;;;1.05;1.05;;;27.50;80.50;;;;;;5031050;28;20051;-62
2022/07/22 04:12:59;;;;;;;0.77;0.77;;;27.50;80.50;;;;;;5027249;28;20540;-62
2022/07/22 04:15:36;;;;;;;2.13;1.27;;;27.50;80.50;;;;;;5028823;28;20164;-62
2022/07/22 04:18:03;;;;;;;1.88;0.98;;;27.50;80.50;;;;;;5033101;28;20046;-63
2022/07/22 04:20:31;;;;;;;0.52;0.52;;;27.50;80.50;;;;;;5029992;28;20051;-62
2022/07/22 04:23:17;;;;;;;1.08;0.70;;;27.50;80.50;;;;;;4966001;28;20043;-62
2022/07/22 04:25:51;;;;;;;1.45;1.08;;;27.50;80.40;;;;;;5047489;28;20052;-62
2022/07/22 04:28:18;;;;;;;0.55;0.55;;;27.50;80.40;;;;;;4981507;28;20059;-61
2022/07/22 04:30:46;;;;;;;0.95;0.63;;;27.50;80.50;;;;;;4976297;28;20061;-61
2022/07/22 04:33:13;;;;;;;1.25;0.90;;;27.50;80.50;;;;;;5045436;28;20054;-63
2022/07/22 04:35:43;;;;;;;4.20;1.50;;;27.50;80.50;;;;;;5038327;28;20518;-62
2022/07/22 04:38:20;;;;;;;2.22;1.33;;;27.50;80.40;;;;;;5029699;28;20047;-62
2022/07/22 04:40:57;;;;;;;0.70;0.70;;;27.50;80.40;;;;;;5036192;28;20051;-62
2022/07/22 04:43:25;;;;;;;2.28;1.40;;;27.50;80.40;;;;;;5030882;28;20494;-63
2022/07/22 04:45:52;;;;;;;0.57;0.57;;;27.50;80.40;;;;;;5028788;28;20050;-62
2022/07/22 04:48:19;;;;;;;1.00;1.00;;;27.50;80.30;;;;;;5035477;28;20047;-64
2022/07/22 04:50:48;;;;;;;1.98;1.50;;;27.50;80.30;;;;;;5031248;28;20063;-64
2022/07/22 04:53:16;;;;;;;1.38;1.10;;;27.50;80.30;;;;;;5027816;28;20058;-63
2022/07/22 04:55:44;;;;;;;2.85;1.05;;;27.50;80.30;;;;;;5041757;28;20052;-63
2022/07/22 04:58:11;;;;;;;;;;;27.50;80.30;;;;;;4995580;28;20047;-62
2022/07/22 05:00:46;;;;;;;1.75;1.15;;;27.50;80.20;;;;;;5025437;28;19934;-63
2022/07/22 05:03:13;;;;;;;1.55;0.70;;;27.50;80.10;;;;;;5041868;28;20043;-62
2022/07/22 05:05:42;;;;;;;0.40;0.40;;;27.60;80.20;;;;;;5041209;28;20047;-61
2022/07/22 05:08:11;;;;;;;3.53;1.27;;;27.50;80.10;;;;;;5028670;28;20526;-62
2022/07/22 05:10:39;;;;;;;4.38;2.42;;;27.50;80.10;;;;;;5013987;28;20051;-62
2022/07/22 05:13:07;;;;;;;2.25;1.48;;;27.50;80.10;;;;;;5047201;28;20859;-62
2022/07/22 05:15:34;;;;;;;2.80;0.95;;;27.50;80.00;;;;;;5026202;28;20062;-62
2022/07/22 05:18:02;;;;;;;1.35;1.05;;;27.50;80.10;;;;;;5022983;28;20057;-63
2022/07/22 05:20:32;;;;;;;0.20;0.20;;;27.50;80.00;;;;;;5046723;28;20367;-63
2022/07/22 05:22:59;;;;;;;0.85;0.85;;;27.50;80.00;;;;;;4974421;28;20054;-63
2022/07/22 05:25:30;;;;;;;0.80;0.80;;;27.50;79.90;;;;;;5032715;28;20059;-63
2022/07/22 05:27:57;;;;;;;1.05;0.98;;;27.60;80.00;;;;;;4966374;28;20047;-62
2022/07/22 05:30:32;;;;;;;1.17;1.08;;;27.60;79.90;;;;;;4983478;28;20031;-63
2022/07/22 05:33:01;;;;;;;1.65;1.40;;;27.60;80.00;;;;;;5033973;28;20049;-63
2022/07/22 05:36:05;;;;;;;3.63;1.70;;;27.60;80.50;;;;;;5005735;28;20069;-63
2022/07/22 05:38:37;;;;;;;2.10;1.10;;;27.60;79.80;;;;;;4972270;28;20492;-62
2022/07/22 05:41:05;;;;;;;0.65;0.65;;;27.60;79.80;;;;;;5037759;28;20049;-62
2022/07/22 05:43:33;;;;;;;1.23;0.98;;;27.50;79.70;;;;;;5026294;28;20050;-62
2022/07/22 05:46:02;;;;;;;0.70;0.68;;;27.50;79.60;;;;;;5032008;28;20512;-62
2022/07/22 05:48:29;;;;;;;0.77;0.77;;;27.50;79.50;;;;;;5041729;28;20494;-64
2022/07/22 05:50:57;;;;;;;1.85;1.50;;;27.50;79.50;;;;;;4959687;28;20406;-63
2022/07/22 05:53:24;;;;;;;1.20;1.10;;;27.50;79.40;;;;;;5049868;28;20549;-62
2022/07/22 05:55:53;;;;;;;1.05;1.00;;;27.50;79.40;;;;;;5029963;28;20047;-61
2022/07/22 05:58:20;;;;;;;2.72;1.88;;;27.50;79.40;;;;;;5039984;28;20055;-63
2022/07/22 06:00:48;;;;;;;2.92;1.30;;;27.40;79.20;;;;;;4998831;28;20054;-61
2022/07/22 06:03:15;;;;;;;0.80;0.80;;;27.40;79.20;;;;;;4962980;28;20693;-63
2022/07/22 06:05:45;;;;;;;1.85;1.25;;;27.40;79.10;;;;;;5030181;28;20043;-62
2022/07/22 06:08:13;;;;;;;;;;;27.40;79.10;;;;;;5039186;28;20048;-63
2022/07/22 06:10:50;;;;;;;5.20;1.92;;;27.40;79.20;;;;;;5034997;28;19944;-63
2022/07/22 06:13:19;;;;;;;2.30;1.17;;;27.40;79.20;;;;;;5044438;28;20044;-63
2022/07/22 06:15:46;;;;;;;2.53;2.03;;;27.50;79.40;;;;;;5048537;28;20048;-63
2022/07/22 06:18:15;;;;;;;0.85;0.82;;;27.50;79.20;;;;;;5030832;28;20498;-62
2022/07/22 06:20:44;;;;;;;5.57;2.70;;;27.50;78.70;;;;;;5028945;28;20414;-63
2022/07/22 06:23:12;;;;;;;2.83;1.35;;;27.50;78.80;;;;;;5034863;28;20046;-63
2022/07/22 06:25:45;;;;;;;4.43;1.95;;;27.40;78.50;;;;;;5031441;28;20047;-63
2022/07/22 06:28:21;;;;;;;3.15;1.25;;;27.40;78.50;;;;;;5030884;28;20399;-62
2022/07/22 06:30:49;;;;;;;3.05;1.55;;;27.40;78.60;;;;;;5027209;28;20050;-62
2022/07/22 06:33:18;;;;;;;3.78;3.47;;;27.40;78.50;;;;;;5031427;28;20050;-64
2022/07/22 06:35:45;;;;;;;1.83;1.35;;;27.40;78.50;;;;;;5009245;28;20468;-63
2022/07/22 06:38:12;;;;;;;4.57;2.50;;;27.40;78.50;;;;;;5015267;28;20066;-64
2022/07/22 06:41:19;;;;;;;0.43;0.43;;;27.40;78.30;;;;;;5012392;28;20056;-63
2022/07/22 06:44:05;;;;;;;4.53;2.28;;;27.40;78.40;;;;;;4970763;28;20635;-63
2022/07/22 06:46:53;;;;;;;1.92;1.35;;;27.50;78.50;;;;;;4960878;28;20055;-62
2022/07/22 06:49:21;;;;;;;1.90;1.58;;;27.50;78.70;;;;;;5035087;28;20066;-62
2022/07/22 06:51:51;;;;;;;3.00;1.25;;;27.50;78.80;;;;;;5026933;28;20518;-62
2022/07/22 06:54:19;;;;;;;0.95;0.95;;;27.40;78.80;;;;;;5039261;28;20267;-63
2022/07/22 06:56:48;;;;;;;0.40;0.40;;;27.50;79.00;;;;;;4969143;28;20492;-63
2022/07/22 06:59:20;;;;;;;0.73;0.73;;;27.40;79.00;;;;;;5023050;28;20058;-62
2022/07/22 07:01:48;;;;;;;1.17;1.13;;;27.40;79.10;;;;;;5019859;28;20057;-62
2022/07/22 07:04:18;;;;;;;2.38;1.45;;;27.50;79.30;;;;;;5028377;28;20062;-62
2022/07/22 07:06:46;;;;;;;3.83;1.55;;;27.50;79.30;;;;;;5033072;28;20054;-63
2022/07/22 07:09:37;;;;;;;2.75;1.45;;;27.50;79.40;;;;;;5019695;28;20070;-62
2022/07/22 07:12:30;;;;;;;1.10;1.02;;;27.50;79.50;;;;;;4978267;28;20063;-62
2022/07/22 07:15:07;;;;;;;0.50;0.50;;;27.50;79.60;;;;;;4965676;28;20065;-62
2022/07/22 07:17:56;;;;;;;13.15;2.92;;;27.50;79.80;;;;;;5037588;28;20062;-62
2022/07/22 07:20:25;;;;;;;1.17;1.13;;;27.50;79.80;;;;;;5029978;28;20062;-63
2022/07/22 07:22:53;;;;;;;0.75;0.75;;;27.50;79.90;;;;;;4974530;28;20411;-62
2022/07/22 07:25:22;;;;;;;0.70;0.70;;;27.50;80.00;;;;;;5030982;28;20058;-61
2022/07/22 07:27:53;;;;;;;1.77;1.10;;;27.50;80.10;;;;;;5029262;28;20448;-62
2022/07/22 07:30:40;;;;;;;1.75;0.73;;;27.50;80.10;;;;;;4992883;28;20063;-62
2022/07/22 07:33:07;;;;;;;3.35;1.63;;;27.60;80.20;;;;;;5033149;28;20054;-63
2022/07/22 07:35:35;;;;;;;;;;;27.50;80.20;;;;;;5036587;28;20051;-62
2022/07/22 07:38:03;;;;;;;0.63;0.63;;;27.60;80.30;;;;;;5025453;28;19926;-61
2022/07/22 07:40:32;;;;;;;4.80;2.33;;;27.60;80.50;;;;;;5030306;28;20043;-59
2022/07/22 07:42:59;;;;;;;0.45;0.45;;;27.60;80.50;;;;;;5029223;28;20055;-62
2022/07/22 07:45:31;;;;;;;0.60;0.60;;;27.60;80.60;;;;;;5043967;28;20506;-62
2022/07/22 07:47:59;;;;;;;1.45;0.95;;;27.60;80.60;;;;;;5035199;28;20043;-64
2022/07/22 07:50:27;;;;;;;1.02;0.80;;;27.60;80.70;;;;;;5044475;28;20051;-67
2022/07/22 07:52:57;;;;;;;0.70;0.70;;;27.60;80.80;;;;;;5029287;28;20047;-61
2022/07/22 07:55:25;;;;;;;0.75;0.75;;;27.60;80.80;;;;;;5056029;28;20055;-64
2022/07/22 07:57:53;;;;;;;;;;;27.70;80.90;;;;;;4986693;28;20046;-65
2022/07/22 08:00:24;;;;;;;1.73;1.33;;;27.70;81.00;;;;;;5023578;28;19953;-62
2022/07/22 08:02:52;;;;;;;1.75;1.40;;;27.60;81.00;;;;;;5025895;28;20047;-63
2022/07/22 08:05:21;;;;;;;1.55;1.05;;;27.60;81.00;;;;;;5023895;28;20391;-61
2022/07/22 08:07:51;;;;;;;3.63;1.50;;;27.60;81.10;;;;;;5027691;28;20644;-64
2022/07/22 08:10:19;;;;;;;3.65;1.95;;;27.70;81.30;;;;;;5026529;28;20051;-63
2022/07/22 08:13:27;;;;;;;1.60;0.90;;;27.70;81.30;;;;;;5028915;28;20067;-63
2022/07/22 08:15:58;;;;;;;2.80;2.10;;;27.70;81.30;;;;;;4999276;28;20412;-62
2022/07/22 08:18:27;;;;;;;0.85;0.80;;;27.70;81.40;;;;;;5029045;28;20074;-64
2022/07/22 08:20:55;;;;;;;0.47;0.47;;;27.70;81.50;;;;;;5042469;28;20055;-63
2022/07/22 08:23:34;;;;;;;1.52;1.08;;;27.70;81.50;;;;;;5019421;28;20082;-62
2022/07/22 08:26:03;;;;;;;11.07;1.42;;;27.70;81.50;;;;;;5059066;28;20064;-62
2022/07/22 08:28:30;;;;;;;22.13;2.67;;;27.70;81.60;;;;;;5045941;28;20071;-62
2022/07/22 08:30:57;;;;;;;1.60;0.93;;;27.70;81.60;;;;;;4976143;28;20051;-62
2022/07/22 08:33:25;;;;;;;0.90;0.90;;;27.70;81.70;;;;;;5027184;28;20371;-62
2022/07/22 08:35:53;;;;;;;1.70;1.00;;;27.70;82.30;;;;;;4959535;28;20502;-63
2022/07/22 08:38:20;;;;;;;;;;;27.70;81.70;;;;;;5027121;28;20055;-62
2022/07/22 08:40:48;;;;;;;2.33;1.50;;;27.70;81.70;;;;;;5022179;28;19930;-63
2022/07/22 08:43:16;;;;;;;1.60;1.02;;;27.70;81.80;;;;;;4991524;28;20045;-63
2022/07/22 08:45:43;;;;;;;0.65;0.65;;;27.70;81.80;;;;;;4957462;28;20052;-62
2022/07/22 08:48:11;;;;;;;1.38;1.25;;;27.70;81.90;;;;;;4936812;28;20414;-62
2022/07/22 08:50:53;;;;;;;0.75;0.60;;;27.80;81.90;;;;;;4993484;28;20053;-61
2022/07/22 08:53:29;;;;;;;0.85;0.85;;;27.70;81.90;;;;;;5013338;28;20060;-63
2022/07/22 08:56:02;;;;;;;2.70;1.70;;;27.80;82.00;;;;;;4969556;28;20463;-61
2022/07/22 08:58:31;;;;;;;3.83;1.35;;;27.80;82.00;;;;;;4980662;28;20068;-61
2022/07/22 09:01:16;;;;;;;1.08;1.05;;;27.70;82.10;;;;;;4944311;28;20050;-62
2022/07/22 09:03:50;;;;;;;2.20;1.27;;;27.80;82.20;;;;;;4963767;28;20052;-64
2022/07/22 09:06:20;;;;;;;5.25;1.75;;;27.80;82.10;;;;;;5000416;28;20504;-62
2022/07/22 09:09:04;;;;;;;0.95;0.95;;;27.70;82.10;;;;;;4949190;28;20396;-62
2022/07/22 09:12:07;;;;;;;1.77;0.88;;;27.80;82.20;;;;;;4967361;28;20066;-62
2022/07/22 09:14:59;;;;;;;5.00;2.35;;;27.80;82.20;;;;;;4967512;28;20052;-61
2022/07/22 09:17:38;;;;;;;2.90;1.20;;;27.80;82.30;;;;;;4987874;28;20430;-61
2022/07/22 09:20:26;;;;;;;0.40;0.40;;;27.80;82.30;;;;;;4995264;28;20064;-62
2022/07/22 09:23:15;;;;;;;1.42;1.30;;;27.80;82.90;;;;;;4963520;28;20123;-63
2022/07/22 09:25:44;;;;;;;0.60;0.60;;;27.70;82.30;;;;;;4964988;28;20533;-63
2022/07/22 09:28:28;;;;;;;2.28;0.82;;;27.80;82.40;;;;;;4961305;28;20051;-62
2022/07/22 09:31:26;;;;;;;6.90;1.75;;;27.80;82.40;;;;;;4983495;28;20065;-62
2022/07/22 09:34:25;;;;;;;0.45;0.45;;;27.80;82.50;;;;;;4968110;28;20391;-61
2022/07/22 09:36:57;;;;;;;3.15;1.55;;;27.80;82.50;;;;;;4944643;29;20426;-63
2022/07/22 09:39:33;;;;;;;2.20;1.15;;;27.80;82.50;;;;;;4990047;28;20074;-62
2022/07/22 09:42:07;;;;;;;0.60;0.60;;;27.80;82.50;;;;;;5016456;28;20045;-61
2022/07/22 09:44:34;;;;;;;3.72;2.25;;;27.80;82.60;;;;;;5046975;28;20047;-63
2022/07/22 09:47:28;;;;;;;1.13;0.77;;;27.80;82.50;;;;;;5054302;28;20048;-62
2022/07/22 09:50:33;;;;;;;2.13;1.20;;;27.80;82.60;;;;;;5040763;28;20068;-61
2022/07/22 09:53:31;;;;;;;1.35;0.82;;;27.80;82.60;;;;;;5047965;28;20060;-63
2022/07/22 09:56:05;;;;;;;5.18;2.05;;;27.80;82.60;;;;;;5043911;28;20049;-63
2022/07/22 09:58:34;;;;;;;0.75;0.70;;;27.80;82.70;;;;;;5038189;28;20053;-60
2022/07/22 10:01:07;;;;;;;0.63;0.63;;;27.80;82.70;;;;;;5040581;28;20113;-61
2022/07/22 10:03:36;;;;;;;0.60;0.52;;;27.80;82.70;;;;;;5041078;28;20477;-62
2022/07/22 10:06:06;;;;;;;2.20;1.35;;;27.80;82.70;;;;;;5045037;28;20045;-62
2022/07/22 10:08:37;;;;;;;0.75;0.75;;;27.80;82.70;;;;;;5037367;28;20049;-63
2022/07/22 10:11:06;;;;;;;1.25;0.70;;;27.80;82.70;;;;;;5041444;28;20416;-62
2022/07/22 10:13:37;;;;;;;0.85;0.75;;;27.80;82.70;;;;;;5038488;28;20048;-63
2022/07/22 10:16:07;;;;;;;1.08;0.68;;;27.80;82.80;;;;;;5034321;28;20061;-62
2022/07/22 10:18:35;;;;;;;3.63;0.65;;;27.80;82.80;;;;;;5039394;28;20059;-63
2022/07/22 10:21:05;;;;;;;1.92;1.23;;;27.80;82.80;;;;;;5042986;28;20144;-62
2022/07/22 10:23:33;;;;;;;3.63;1.75;;;27.80;82.80;;;;;;5038135;28;20475;-62
2022/07/22 10:26:02;;;;;;;0.60;0.60;;;27.80;82.90;;;;;;5041620;28;20147;-61
2022/07/22 10:28:37;;;;;;;1.08;0.75;;;27.80;82.90;;;;;;5045544;28;20488;-62
2022/07/22 10:31:14;;;;;;;0.75;0.75;;;27.80;82.90;;;;;;5040129;28;20472;-63
2022/07/22 10:33:43;;;;;;;1.50;1.20;;;27.80;82.90;;;;;;5039367;28;20489;-62
2022/07/22 10:36:10;;;;;;;0.45;0.45;;;27.80;83.20;;;;;;5032880;28;20513;-62
2022/07/22 10:39:09;;;;;;;0.20;0.20;;;27.80;82.90;;;;;;5045140;28;20053;-61
2022/07/22 10:41:42;;;;;;;1.42;0.90;;;27.80;82.90;;;;;;5013660;28;20043;-62
2022/07/22 10:44:48;;;;;;;1.60;1.17;;;27.80;82.90;;;;;;5033108;28;20062;-62
2022/07/22 10:47:56;;;;;;;1.08;0.82;;;27.80;83.00;;;;;;4967736;28;20054;-62
2022/07/22 10:50:35;;;;;;;1.30;1.10;;;27.80;83.00;;;;;;4975784;28;20058;-63
2022/07/22 10:53:10;;;;;;;2.30;1.05;;;27.80;83.00;;;;;;4983684;28;20300;-62
2022/07/22 10:55:58;;;;;;;2.17;0.50;;;27.80;83.00;;;;;;4972905;28;20055;-63
2022/07/22 10:58:35;;;;;;;1.05;0.95;;;27.80;83.00;;;;;;5000677;28;20043;-62
2022/07/22 11:01:07;;;;;;;1.45;0.88;;;27.80;83.00;;;;;;4961467;28;20138;-63
2022/07/22 11:03:37;;;;;;;0.35;0.35;;;27.80;83.10;;;;;;4980260;28;20041;-62
2022/07/22 11:06:19;;;;;;;0.40;0.40;;;27.80;83.00;;;;;;4967562;28;20065;-62
2022/07/22 11:08:50;;;;;;;0.77;0.65;;;27.80;83.00;;;;;;5002851;28;20040;-63
2022/07/22 11:11:30;;;;;;;1.27;1.10;;;27.80;83.10;;;;;;4984534;28;20047;-61
2022/07/22 11:13:58;;;;;;;0.55;0.55;;;27.80;83.00;;;;;;4961595;28;20059;-64
2022/07/22 11:16:28;;;;;;;0.45;0.45;;;27.80;83.00;;;;;;4979998;28;20050;-62
2022/07/22 11:19:01;;;;;;;0.52;0.52;;;27.80;83.00;;;;;;4995116;28;20052;-61
2022/07/22 11:21:32;;;;;;;1.50;1.23;;;27.80;83.00;;;;;;4960474;28;20058;-62
2022/07/22 11:24:07;;;;;;;0.68;0.52;;;27.80;83.00;;;;;;4970831;28;20057;-60
2022/07/22 11:26:41;;;;;;;2.75;0.65;;;27.80;83.00;;;;;;4963130;28;20058;-65
2022/07/22 11:29:10;;;;;;;1.45;0.98;;;27.80;83.00;;;;;;4972404;28;20466;-62
2022/07/22 11:31:38;;;;;;;0.55;0.52;;;27.80;83.00;;;;;;4985984;28;20042;-63
2022/07/22 11:34:10;;;;;;;1.40;0.75;;;27.80;83.00;;;;;;4969522;28;20046;-63
2022/07/22 11:36:42;;;;;;;2.10;1.42;;;27.80;83.00;;;;;;4981793;28;20363;-62
2022/07/22 11:39:12;;;;;;;0.43;0.40;;;27.80;83.00;;;;;;4964461;28;20055;-63
2022/07/22 11:41:40;;;;;;;0.20;0.20;;;27.80;83.00;;;;;;5022928;28;20055;-62
2022/07/22 11:44:07;;;;;;;1.25;0.80;;;27.80;83.00;;;;;;4954767;28;20046;-62
2022/07/22 11:46:40;;;;;;;1.80;1.13;;;27.80;83.00;;;;;;5026300;28;20478;-63
2022/07/22 11:49:12;;;;;;;0.60;0.60;;;27.80;83.00;;;;;;4957190;28;20047;-63
2022/07/22 11:51:40;;;;;;;0.55;0.45;;;27.80;83.00;;;;;;4999266;28;20052;-61
2022/07/22 11:54:07;;;;;;;3.25;1.60;;;27.80;83.00;;;;;;4959674;28;20050;-63
2022/07/22 11:56:36;;;;;;;0.68;0.52;;;27.80;83.00;;;;;;4962575;28;20050;-63
2022/07/22 11:59:04;;;;;;;1.30;0.90;;;27.90;83.00;;;;;;4962273;28;20062;-62
2022/07/22 12:01:37;;;;;;;0.57;0.57;;;27.90;83.00;;;;;;4975660;28;20047;-63
2022/07/22 12:04:06;;;;;;;2.20;1.10;;;27.90;83.00;;;;;;5006935;28;20043;-60
2022/07/22 12:06:38;;;;;;;0.88;0.45;;;27.90;83.00;;;;;;4974898;28;20062;-62
2022/07/22 12:09:12;;;;;;;2.10;1.15;;;27.90;83.00;;;;;;5048383;28;20394;-62
2022/07/22 12:11:46;;;;;;;0.35;0.35;;;27.90;83.00;;;;;;4995872;28;20067;-63
2022/07/22 12:14:16;;;;;;;0.57;0.57;;;27.90;83.00;;;;;;4978046;28;20406;-61
2022/07/22 12:16:54;;;;;;;2.92;1.40;;;27.90;83.00;;;;;;4979097;28;20052;-63
2022/07/22 12:19:22;;;;;;;2.92;1.10;;;27.90;82.90;;;;;;4967027;28;20057;-59
2022/07/22 12:21:57;;;;;;;0.25;0.25;;;27.90;83.00;;;;;;4964514;28;20045;-63
2022/07/22 12:24:31;;;;;;;1.30;1.23;;;27.90;82.90;;;;;;5012337;28;20051;-63
2022/07/22 12:27:04;;;;;;;1.35;0.85;;;27.90;82.90;;;;;;4962607;28;20467;-63
2022/07/22 12:29:37;;;;;;;0.43;0.43;;;27.90;82.90;;;;;;4972687;28;20041;-62
2022/07/22 12:32:24;;;;;;;0.30;0.30;;;27.90;82.90;;;;;;4961136;28;20050;-62
2022/07/22 12:34:58;;;;;;;2.28;1.38;;;27.90;82.90;;;;;;4992543;28;20048;-62
2022/07/22 12:37:45;;;;;;;0.30;0.30;;;28.00;83.00;;;;;;5025704;28;20153;-62
2022/07/22 12:40:19;;;;;;;1.17;0.88;;;28.00;82.90;;;;;;4965926;28;20394;-59
2022/07/22 12:43:09;;;;;;;0.52;0.52;;;28.00;82.90;;;;;;4970647;28;20312;-63
2022/07/22 12:45:38;;;;;;;1.50;0.95;;;28.00;82.90;;;;;;4974157;28;20044;-62
2022/07/22 12:48:09;;;;;;;0.77;0.60;;;28.00;82.80;;;;;;4968001;28;20526;-62
2022/07/22 12:50:41;;;;;;;0.35;0.35;;;28.00;82.80;;;;;;4960139;28;20051;-62
2022/07/22 12:53:14;;;;;;;0.77;0.77;;;28.00;82.80;;;;;;5040827;28;20051;-62
2022/07/22 12:56:02;;;;;;;0.98;0.98;;;28.00;82.80;;;;;;4975324;28;20053;-63
2022/07/22 12:58:32;;;;;;;0.68;0.68;;;28.00;82.70;;;;;;5006645;28;20055;-64
2022/07/22 13:01:00;;;;;;;1.30;1.08;;;28.10;82.80;;;;;;5012247;28;20051;-63
2022/07/22 13:03:30;;;;;;;1.05;0.50;;;28.10;82.70;;;;;;5002552;28;20514;-62
2022/07/22 13:06:00;;;;;;;3.67;1.60;;;28.10;82.70;;;;;;4991475;28;20041;-63
2022/07/22 13:08:28;;;;;;;4.57;1.50;;;28.10;82.70;;;;;;4983297;28;20626;-62
2022/07/22 13:11:12;;;;;;;1.45;0.85;;;28.10;82.60;;;;;;4977126;28;20055;-61
2022/07/22 13:13:42;;;;;;;0.47;0.47;;;28.20;82.70;;;;;;4995045;28;20053;-61
2022/07/22 13:16:10;;;;;;;0.50;0.50;;;28.20;82.70;;;;;;4981110;28;20067;-62
2022/07/22 13:18:39;;;;;;;1.98;1.17;;;28.20;82.60;;;;;;5038945;28;20071;-61
2022/07/22 13:21:06;;;;;;;;;;;28.20;82.50;;;;;;4977230;28;20047;-62